sensor_id;sensor_type;location;lat;lon;timestamp;temperature;humidity
25504;DHT22;13410;52.114;5.718;2023-05-21T00:00:49;18.30;99.90
25504;DHT22;13410;52.114;5.718;2023-05-21T00:03:16;18.40;99.90
25504;DHT22;13410;52.114;5.718;2023-05-21T00:05:42;18.30;99.90
25504;DHT22;13410;52.114;5.718;2023-05-21T00:08:11;18.30;99.90
25504;DHT22;13410;52.114;5.718;2023-05-21T00:10:36;18.40;99.90
25504;DHT22;13410;52.114;5.718;2023-05-21T00:13:02;18.40;99.90
25504;DHT22;13410;52.114;5.718;2023-05-21T00:15:27;18.40;99.90
25504;DHT22;13410;52.114;5.718;2023-05-21T00:17:53;18.70;99.90
25504;DHT22;13410;52.114;5.718;2023-05-21T00:20:18;18.90;99.90
25504;DHT22;13410;52.114;5.718;2023-05-21T00:22:44;18.90;99.90
25504;DHT22;13410;52.114;5.718;2023-05-21T00:25:10;18.70;99.90
25504;DHT22;13410;52.114;5.718;2023-05-21T00:27:36;18.70;99.90
25504;DHT22;13410;52.114;5.718;2023-05-21T00:30:03;18.60;99.90
25504;DHT22;13410;52.114;5.718;2023-05-21T00:32:28;18.40;99.90
25504;DHT22;13410;52.114;5.718;2023-05-21T00:34:55;18.70;99.90
25504;DHT22;13410;52.114;5.718;2023-05-21T00:37:22;18.70;99.90
25504;DHT22;13410;52.114;5.718;2023-05-21T00:39:49;18.90;99.90
25504;DHT22;13410;52.114;5.718;2023-05-21T00:42:16;18.80;99.90
25504;DHT22;13410;52.114;5.718;2023-05-21T00:44:43;19.00;99.90
25504;DHT22;13410;52.114;5.718;2023-05-21T00:47:10;18.90;99.90
25504;DHT22;13410;52.114;5.718;2023-05-21T00:49:36;18.50;99.90
25504;DHT22;13410;52.114;5.718;2023-05-21T00:52:02;18.30;99.90
25504;DHT22;13410;52.114;5.718;2023-05-21T00:54:28;18.30;99.90
25504;DHT22;13410;52.114;5.718;2023-05-21T00:56:54;18.20;99.90
25504;DHT22;13410;52.114;5.718;2023-05-21T00:59:20;18.30;99.90
25504;DHT22;13410;52.114;5.718;2023-05-21T01:01:46;18.10;99.90
25504;DHT22;13410;52.114;5.718;2023-05-21T01:04:18;18.20;99.90
25504;DHT22;13410;52.114;5.718;2023-05-21T01:06:44;18.20;99.90
25504;DHT22;13410;52.114;5.718;2023-05-21T01:09:10;18.20;99.90
25504;DHT22;13410;52.114;5.718;2023-05-21T01:11:38;18.10;99.90
25504;DHT22;13410;52.114;5.718;2023-05-21T01:14:05;18.00;99.90
25504;DHT22;13410;52.114;5.718;2023-05-21T01:16:35;17.90;99.90
25504;DHT22;13410;52.114;5.718;2023-05-21T01:19:01;17.80;99.90
25504;DHT22;13410;52.114;5.718;2023-05-21T01:21:28;17.90;99.90
25504;DHT22;13410;52.114;5.718;2023-05-21T01:23:54;18.00;99.90
25504;DHT22;13410;52.114;5.718;2023-05-21T01:26:20;18.30;99.90
25504;DHT22;13410;52.114;5.718;2023-05-21T01:28:45;18.10;99.90
25504;DHT22;13410;52.114;5.718;2023-05-21T01:31:22;17.90;99.90
25504;DHT22;13410;52.114;5.718;2023-05-21T01:33:51;17.90;99.90
25504;DHT22;13410;52.114;5.718;2023-05-21T01:36:24;17.90;99.90
25504;DHT22;13410;52.114;5.718;2023-05-21T01:39:06;18.00;99.90
25504;DHT22;13410;52.114;5.718;2023-05-21T01:41:37;18.00;99.90
25504;DHT22;13410;52.114;5.718;2023-05-21T01:44:04;17.90;99.90
25504;DHT22;13410;52.114;5.718;2023-05-21T01:46:32;18.00;99.90
25504;DHT22;13410;52.114;5.718;2023-05-21T01:48:59;18.10;99.90
25504;DHT22;13410;52.114;5.718;2023-05-21T01:51:25;17.90;99.90
25504;DHT22;13410;52.114;5.718;2023-05-21T01:53:51;18.00;99.90
25504;DHT22;13410;52.114;5.718;2023-05-21T01:56:17;17.80;99.90
25504;DHT22;13410;52.114;5.718;2023-05-21T01:58:42;17.80;99.90
25504;DHT22;13410;52.114;5.718;2023-05-21T02:01:09;17.90;99.90
25504;DHT22;13410;52.114;5.718;2023-05-21T02:03:36;18.00;99.90
25504;DHT22;13410;52.114;5.718;2023-05-21T02:06:02;18.00;99.90
25504;DHT22;13410;52.114;5.718;2023-05-21T02:08:28;18.00;99.90
25504;DHT22;13410;52.114;5.718;2023-05-21T02:10:53;17.90;99.90
25504;DHT22;13410;52.114;5.718;2023-05-21T02:13:19;18.00;99.90
25504;DHT22;13410;52.114;5.718;2023-05-21T02:15:45;18.00;99.90
25504;DHT22;13410;52.114;5.718;2023-05-21T02:18:11;18.00;99.90
25504;DHT22;13410;52.114;5.718;2023-05-21T02:20:41;18.00;99.90
25504;DHT22;13410;52.114;5.718;2023-05-21T02:23:07;18.10;99.90
25504;DHT22;13410;52.114;5.718;2023-05-21T02:25:32;18.00;99.90
25504;DHT22;13410;52.114;5.718;2023-05-21T02:27:58;18.10;99.90
25504;DHT22;13410;52.114;5.718;2023-05-21T02:30:23;18.10;99.90
25504;DHT22;13410;52.114;5.718;2023-05-21T02:32:49;17.90;99.90
25504;DHT22;13410;52.114;5.718;2023-05-21T02:35:15;17.90;99.90
25504;DHT22;13410;52.114;5.718;2023-05-21T02:37:41;17.80;99.90
25504;DHT22;13410;52.114;5.718;2023-05-21T02:40:08;17.80;99.90
25504;DHT22;13410;52.114;5.718;2023-05-21T02:42:35;17.60;99.90
25504;DHT22;13410;52.114;5.718;2023-05-21T02:45:04;17.70;99.90
25504;DHT22;13410;52.114;5.718;2023-05-21T02:47:30;17.50;99.90
25504;DHT22;13410;52.114;5.718;2023-05-21T02:49:58;17.60;99.90
25504;DHT22;13410;52.114;5.718;2023-05-21T02:52:24;17.70;99.90
25504;DHT22;13410;52.114;5.718;2023-05-21T02:54:50;17.90;99.90
25504;DHT22;13410;52.114;5.718;2023-05-21T02:57:15;17.90;99.90
25504;DHT22;13410;52.114;5.718;2023-05-21T02:59:42;18.00;99.90
25504;DHT22;13410;52.114;5.718;2023-05-21T03:02:08;18.00;99.90
25504;DHT22;13410;52.114;5.718;2023-05-21T03:04:34;18.00;99.90
25504;DHT22;13410;52.114;5.718;2023-05-21T03:07:04;17.90;99.90
25504;DHT22;13410;52.114;5.718;2023-05-21T03:09:29;17.70;99.90
25504;DHT22;13410;52.114;5.718;2023-05-21T03:11:55;17.50;99.90
25504;DHT22;13410;52.114;5.718;2023-05-21T03:14:22;17.50;99.90
25504;DHT22;13410;52.114;5.718;2023-05-21T03:16:49;17.60;99.90
25504;DHT22;13410;52.114;5.718;2023-05-21T03:19:15;17.60;99.90
25504;DHT22;13410;52.114;5.718;2023-05-21T03:21:41;17.40;99.90
25504;DHT22;13410;52.114;5.718;2023-05-21T03:24:10;17.60;99.90
25504;DHT22;13410;52.114;5.718;2023-05-21T03:26:37;17.50;99.90
25504;DHT22;13410;52.114;5.718;2023-05-21T03:29:03;17.70;99.90
25504;DHT22;13410;52.114;5.718;2023-05-21T03:31:28;17.60;99.90
25504;DHT22;13410;52.114;5.718;2023-05-21T03:33:54;17.60;99.90
25504;DHT22;13410;52.114;5.718;2023-05-21T03:36:20;17.80;99.90
25504;DHT22;13410;52.114;5.718;2023-05-21T03:38:45;17.70;99.90
25504;DHT22;13410;52.114;5.718;2023-05-21T03:41:11;17.80;99.90
25504;DHT22;13410;52.114;5.718;2023-05-21T03:43:37;17.80;99.90
25504;DHT22;13410;52.114;5.718;2023-05-21T03:46:02;17.70;99.90
25504;DHT22;13410;52.114;5.718;2023-05-21T03:48:28;17.80;99.90
25504;DHT22;13410;52.114;5.718;2023-05-21T03:50:53;17.80;99.90
25504;DHT22;13410;52.114;5.718;2023-05-21T03:53:19;17.40;99.90
25504;DHT22;13410;52.114;5.718;2023-05-21T03:55:45;17.60;99.90
25504;DHT22;13410;52.114;5.718;2023-05-21T03:58:11;17.60;99.90
25504;DHT22;13410;52.114;5.718;2023-05-21T04:00:37;17.60;99.90
25504;DHT22;13410;52.114;5.718;2023-05-21T04:03:03;17.70;99.90
25504;DHT22;13410;52.114;5.718;2023-05-21T04:05:28;17.70;99.90
25504;DHT22;13410;52.114;5.718;2023-05-21T04:07:54;17.50;99.90
25504;DHT22;13410;52.114;5.718;2023-05-21T04:10:20;17.60;99.90
25504;DHT22;13410;52.114;5.718;2023-05-21T04:12:47;17.60;99.90
25504;DHT22;13410;52.114;5.718;2023-05-21T04:15:17;17.60;99.90
25504;DHT22;13410;52.114;5.718;2023-05-21T04:17:43;17.60;99.90
25504;DHT22;13410;52.114;5.718;2023-05-21T04:20:10;17.60;99.90
25504;DHT22;13410;52.114;5.718;2023-05-21T04:22:36;17.50;99.90
25504;DHT22;13410;52.114;5.718;2023-05-21T04:25:02;17.60;99.90
25504;DHT22;13410;52.114;5.718;2023-05-21T04:27:27;17.60;99.90
25504;DHT22;13410;52.114;5.718;2023-05-21T04:29:53;17.70;99.90
25504;DHT22;13410;52.114;5.718;2023-05-21T04:32:19;17.60;99.90
25504;DHT22;13410;52.114;5.718;2023-05-21T04:34:44;17.60;99.90
25504;DHT22;13410;52.114;5.718;2023-05-21T04:37:10;17.60;99.90
25504;DHT22;13410;52.114;5.718;2023-05-21T04:39:36;17.50;99.90
25504;DHT22;13410;52.114;5.718;2023-05-21T04:42:02;17.60;99.90
25504;DHT22;13410;52.114;5.718;2023-05-21T04:44:28;17.70;99.90
25504;DHT22;13410;52.114;5.718;2023-05-21T04:46:54;17.70;99.90
25504;DHT22;13410;52.114;5.718;2023-05-21T04:49:21;17.50;99.90
25504;DHT22;13410;52.114;5.718;2023-05-21T04:51:47;17.50;99.90
25504;DHT22;13410;52.114;5.718;2023-05-21T04:54:13;17.70;99.90
25504;DHT22;13410;52.114;5.718;2023-05-21T04:56:39;17.80;99.90
25504;DHT22;13410;52.114;5.718;2023-05-21T04:59:05;17.70;99.90
25504;DHT22;13410;52.114;5.718;2023-05-21T05:01:31;17.50;99.90
25504;DHT22;13410;52.114;5.718;2023-05-21T05:03:57;17.70;99.90
25504;DHT22;13410;52.114;5.718;2023-05-21T05:06:22;17.60;99.90
25504;DHT22;13410;52.114;5.718;2023-05-21T05:08:50;17.70;99.90
25504;DHT22;13410;52.114;5.718;2023-05-21T05:11:15;17.80;99.90
25504;DHT22;13410;52.114;5.718;2023-05-21T05:13:41;17.80;99.90
25504;DHT22;13410;52.114;5.718;2023-05-21T05:16:06;18.00;99.90
25504;DHT22;13410;52.114;5.718;2023-05-21T05:18:33;17.90;99.90
25504;DHT22;13410;52.114;5.718;2023-05-21T05:20:59;17.90;99.90
25504;DHT22;13410;52.114;5.718;2023-05-21T05:23:25;17.90;99.90
25504;DHT22;13410;52.114;5.718;2023-05-21T05:25:51;18.00;99.90
25504;DHT22;13410;52.114;5.718;2023-05-21T05:28:16;18.20;99.90
25504;DHT22;13410;52.114;5.718;2023-05-21T05:30:42;18.20;99.90
25504;DHT22;13410;52.114;5.718;2023-05-21T05:33:07;18.30;99.90
25504;DHT22;13410;52.114;5.718;2023-05-21T05:35:33;18.20;99.90
25504;DHT22;13410;52.114;5.718;2023-05-21T05:37:59;18.20;99.90
25504;DHT22;13410;52.114;5.718;2023-05-21T05:40:24;18.30;99.90
25504;DHT22;13410;52.114;5.718;2023-05-21T05:42:50;18.20;99.90
25504;DHT22;13410;52.114;5.718;2023-05-21T05:45:17;18.20;99.90
25504;DHT22;13410;52.114;5.718;2023-05-21T05:47:43;18.20;99.90
25504;DHT22;13410;52.114;5.718;2023-05-21T05:50:09;18.20;99.90
25504;DHT22;13410;52.114;5.718;2023-05-21T05:52:34;17.90;99.90
25504;DHT22;13410;52.114;5.718;2023-05-21T05:55:00;17.80;99.90
25504;DHT22;13410;52.114;5.718;2023-05-21T05:57:26;17.90;99.90
25504;DHT22;13410;52.114;5.718;2023-05-21T05:59:51;18.10;99.90
25504;DHT22;13410;52.114;5.718;2023-05-21T06:02:17;18.10;99.90
25504;DHT22;13410;52.114;5.718;2023-05-21T06:04:42;18.30;99.90
25504;DHT22;13410;52.114;5.718;2023-05-21T06:07:08;18.30;99.90
25504;DHT22;13410;52.114;5.718;2023-05-21T06:09:33;18.20;99.90
25504;DHT22;13410;52.114;5.718;2023-05-21T06:12:04;18.20;99.90
25504;DHT22;13410;52.114;5.718;2023-05-21T06:14:30;18.10;99.90
25504;DHT22;13410;52.114;5.718;2023-05-21T06:16:55;18.20;99.90
25504;DHT22;13410;52.114;5.718;2023-05-21T06:19:21;18.30;99.90
25504;DHT22;13410;52.114;5.718;2023-05-21T06:21:47;18.50;99.90
25504;DHT22;13410;52.114;5.718;2023-05-21T06:24:13;18.60;99.90
25504;DHT22;13410;52.114;5.718;2023-05-21T06:26:38;18.70;99.90
25504;DHT22;13410;52.114;5.718;2023-05-21T06:29:04;18.80;99.90
25504;DHT22;13410;52.114;5.718;2023-05-21T06:31:29;19.00;99.90
25504;DHT22;13410;52.114;5.718;2023-05-21T06:33:58;19.00;99.90
25504;DHT22;13410;52.114;5.718;2023-05-21T06:36:24;18.70;99.90
25504;DHT22;13410;52.114;5.718;2023-05-21T06:38:54;18.90;99.90
25504;DHT22;13410;52.114;5.718;2023-05-21T06:41:20;18.80;99.90
25504;DHT22;13410;52.114;5.718;2023-05-21T06:43:45;19.00;99.90
25504;DHT22;13410;52.114;5.718;2023-05-21T06:46:11;19.30;99.90
25504;DHT22;13410;52.114;5.718;2023-05-21T06:48:36;19.50;99.90
25504;DHT22;13410;52.114;5.718;2023-05-21T06:51:02;19.50;99.90
25504;DHT22;13410;52.114;5.718;2023-05-21T06:53:27;19.40;99.90
25504;DHT22;13410;52.114;5.718;2023-05-21T06:55:53;19.50;99.90
25504;DHT22;13410;52.114;5.718;2023-05-21T06:58:19;19.70;99.90
25504;DHT22;13410;52.114;5.718;2023-05-21T07:00:46;19.60;99.90
25504;DHT22;13410;52.114;5.718;2023-05-21T07:03:11;19.50;99.90
25504;DHT22;13410;52.114;5.718;2023-05-21T07:05:37;19.80;99.90
25504;DHT22;13410;52.114;5.718;2023-05-21T07:08:02;19.80;99.90
25504;DHT22;13410;52.114;5.718;2023-05-21T07:10:28;19.80;99.90
25504;DHT22;13410;52.114;5.718;2023-05-21T07:12:53;19.90;99.90
25504;DHT22;13410;52.114;5.718;2023-05-21T07:15:19;20.00;99.90
25504;DHT22;13410;52.114;5.718;2023-05-21T07:17:44;19.90;99.90
25504;DHT22;13410;52.114;5.718;2023-05-21T07:20:11;19.90;99.90
25504;DHT22;13410;52.114;5.718;2023-05-21T07:22:37;20.00;99.90
25504;DHT22;13410;52.114;5.718;2023-05-21T07:25:04;20.10;99.90
25504;DHT22;13410;52.114;5.718;2023-05-21T07:27:29;20.20;99.90
25504;DHT22;13410;52.114;5.718;2023-05-21T07:29:55;20.10;99.90
25504;DHT22;13410;52.114;5.718;2023-05-21T07:32:20;20.20;99.90
25504;DHT22;13410;52.114;5.718;2023-05-21T07:34:46;20.10;99.90
25504;DHT22;13410;52.114;5.718;2023-05-21T07:37:11;19.90;99.90
25504;DHT22;13410;52.114;5.718;2023-05-21T07:39:38;20.00;99.90
25504;DHT22;13410;52.114;5.718;2023-05-21T07:42:04;20.20;99.90
25504;DHT22;13410;52.114;5.718;2023-05-21T07:44:31;20.50;99.90
25504;DHT22;13410;52.114;5.718;2023-05-21T07:46:57;20.80;99.90
25504;DHT22;13410;52.114;5.718;2023-05-21T07:49:24;20.80;99.90
25504;DHT22;13410;52.114;5.718;2023-05-21T07:51:49;20.60;99.90
25504;DHT22;13410;52.114;5.718;2023-05-21T07:54:15;20.50;99.90
25504;DHT22;13410;52.114;5.718;2023-05-21T07:56:41;20.60;99.90
25504;DHT22;13410;52.114;5.718;2023-05-21T07:59:07;20.60;99.90
25504;DHT22;13410;52.114;5.718;2023-05-21T08:01:32;21.00;99.90
25504;DHT22;13410;52.114;5.718;2023-05-21T08:03:58;21.20;99.90
25504;DHT22;13410;52.114;5.718;2023-05-21T08:06:30;21.10;99.90
25504;DHT22;13410;52.114;5.718;2023-05-21T08:08:55;21.30;99.90
25504;DHT22;13410;52.114;5.718;2023-05-21T08:11:21;21.40;99.90
25504;DHT22;13410;52.114;5.718;2023-05-21T08:13:47;21.10;99.90
25504;DHT22;13410;52.114;5.718;2023-05-21T08:16:13;21.00;99.90
25504;DHT22;13410;52.114;5.718;2023-05-21T08:18:38;20.80;99.90
25504;DHT22;13410;52.114;5.718;2023-05-21T08:21:07;21.10;99.90
25504;DHT22;13410;52.114;5.718;2023-05-21T08:23:32;21.50;99.90
25504;DHT22;13410;52.114;5.718;2023-05-21T08:25:58;21.40;99.90
25504;DHT22;13410;52.114;5.718;2023-05-21T08:28:23;21.20;99.90
25504;DHT22;13410;52.114;5.718;2023-05-21T08:30:50;21.70;99.90
25504;DHT22;13410;52.114;5.718;2023-05-21T08:33:15;22.30;99.90
25504;DHT22;13410;52.114;5.718;2023-05-21T08:35:41;22.30;99.90
25504;DHT22;13410;52.114;5.718;2023-05-21T08:38:06;22.10;99.90
25504;DHT22;13410;52.114;5.718;2023-05-21T08:40:33;22.00;99.90
25504;DHT22;13410;52.114;5.718;2023-05-21T08:43:00;22.40;99.90
25504;DHT22;13410;52.114;5.718;2023-05-21T08:45:26;22.00;99.90
25504;DHT22;13410;52.114;5.718;2023-05-21T08:47:55;22.20;99.90
25504;DHT22;13410;52.114;5.718;2023-05-21T08:50:23;22.00;99.90
25504;DHT22;13410;52.114;5.718;2023-05-21T08:52:50;22.00;99.90
25504;DHT22;13410;52.114;5.718;2023-05-21T08:55:16;22.10;99.90
25504;DHT22;13410;52.114;5.718;2023-05-21T08:57:43;21.90;99.90
25504;DHT22;13410;52.114;5.718;2023-05-21T09:00:09;22.00;99.90
25504;DHT22;13410;52.114;5.718;2023-05-21T09:02:37;22.30;99.90
25504;DHT22;13410;52.114;5.718;2023-05-21T09:05:05;22.30;99.90
25504;DHT22;13410;52.114;5.718;2023-05-21T09:07:35;22.50;99.90
25504;DHT22;13410;52.114;5.718;2023-05-21T09:10:06;22.70;99.90
25504;DHT22;13410;52.114;5.718;2023-05-21T09:12:35;22.50;99.90
25504;DHT22;13410;52.114;5.718;2023-05-21T09:15:01;22.80;99.90
25504;DHT22;13410;52.114;5.718;2023-05-21T09:17:27;22.60;99.90
25504;DHT22;13410;52.114;5.718;2023-05-21T09:22:46;22.50;99.90
25504;DHT22;13410;52.114;5.718;2023-05-21T09:25:15;22.80;99.90
25504;DHT22;13410;52.114;5.718;2023-05-21T09:27:40;23.00;99.90
25504;DHT22;13410;52.114;5.718;2023-05-21T09:30:11;23.50;99.90
25504;DHT22;13410;52.114;5.718;2023-05-21T09:32:37;23.50;99.90
25504;DHT22;13410;52.114;5.718;2023-05-21T09:35:23;23.60;99.90
25504;DHT22;13410;52.114;5.718;2023-05-21T09:37:50;23.50;99.90
25504;DHT22;13410;52.114;5.718;2023-05-21T09:40:22;23.20;99.90
25504;DHT22;13410;52.114;5.718;2023-05-21T09:42:53;23.40;99.90
25504;DHT22;13410;52.114;5.718;2023-05-21T09:47:48;23.60;99.90
25504;DHT22;13410;52.114;5.718;2023-05-21T09:50:18;23.90;99.90
25504;DHT22;13410;52.114;5.718;2023-05-21T09:52:44;24.10;99.90
25504;DHT22;13410;52.114;5.718;2023-05-21T09:55:10;24.00;99.90
25504;DHT22;13410;52.114;5.718;2023-05-21T09:57:41;24.00;99.90
25504;DHT22;13410;52.114;5.718;2023-05-21T10:00:08;23.80;99.90
25504;DHT22;13410;52.114;5.718;2023-05-21T10:02:36;23.90;99.90
25504;DHT22;13410;52.114;5.718;2023-05-21T10:05:01;24.10;99.90
25504;DHT22;13410;52.114;5.718;2023-05-21T10:07:28;24.10;99.90
25504;DHT22;13410;52.114;5.718;2023-05-21T10:09:54;23.90;99.90
25504;DHT22;13410;52.114;5.718;2023-05-21T10:12:21;23.80;99.90
25504;DHT22;13410;52.114;5.718;2023-05-21T10:14:50;23.80;99.90
25504;DHT22;13410;52.114;5.718;2023-05-21T10:17:16;23.80;99.90
25504;DHT22;13410;52.114;5.718;2023-05-21T10:19:42;23.80;99.90
25504;DHT22;13410;52.114;5.718;2023-05-21T10:22:08;24.10;99.90
25504;DHT22;13410;52.114;5.718;2023-05-21T10:24:35;24.50;99.90
25504;DHT22;13410;52.114;5.718;2023-05-21T10:27:01;24.60;99.90
25504;DHT22;13410;52.114;5.718;2023-05-21T10:29:26;24.60;99.90
25504;DHT22;13410;52.114;5.718;2023-05-21T10:31:52;24.40;99.90
25504;DHT22;13410;52.114;5.718;2023-05-21T10:34:18;24.20;99.90
25504;DHT22;13410;52.114;5.718;2023-05-21T10:36:45;24.20;99.90
25504;DHT22;13410;52.114;5.718;2023-05-21T10:39:12;24.10;99.90
25504;DHT22;13410;52.114;5.718;2023-05-21T10:41:45;24.10;99.90
25504;DHT22;13410;52.114;5.718;2023-05-21T10:44:17;23.90;99.90
25504;DHT22;13410;52.114;5.718;2023-05-21T10:54:56;24.30;99.90
25504;DHT22;13410;52.114;5.718;2023-05-21T11:00:06;24.30;99.90
25504;DHT22;13410;52.114;5.718;2023-05-21T11:02:32;24.20;99.90
25504;DHT22;13410;52.114;5.718;2023-05-21T11:04:59;24.30;99.90
25504;DHT22;13410;52.114;5.718;2023-05-21T11:13:03;24.60;99.90
25504;DHT22;13410;52.114;5.718;2023-05-21T11:15:41;24.80;99.90
25504;DHT22;13410;52.114;5.718;2023-05-21T11:18:17;24.60;99.90
25504;DHT22;13410;52.114;5.718;2023-05-21T11:20:49;24.40;99.90
25504;DHT22;13410;52.114;5.718;2023-05-21T11:23:17;24.40;99.90
25504;DHT22;13410;52.114;5.718;2023-05-21T11:25:42;24.40;99.90
25504;DHT22;13410;52.114;5.718;2023-05-21T11:28:08;24.70;99.90
25504;DHT22;13410;52.114;5.718;2023-05-21T11:30:33;25.00;99.90
25504;DHT22;13410;52.114;5.718;2023-05-21T11:35:54;24.90;99.90
25504;DHT22;13410;52.114;5.718;2023-05-21T11:38:19;24.80;99.90
25504;DHT22;13410;52.114;5.718;2023-05-21T11:40:49;24.80;99.90
25504;DHT22;13410;52.114;5.718;2023-05-21T11:43:14;24.50;99.90
25504;DHT22;13410;52.114;5.718;2023-05-21T11:45:41;24.60;99.90
25504;DHT22;13410;52.114;5.718;2023-05-21T11:48:14;24.50;99.90
25504;DHT22;13410;52.114;5.718;2023-05-21T11:50:40;24.70;99.90
25504;DHT22;13410;52.114;5.718;2023-05-21T11:53:06;24.60;99.90
25504;DHT22;13410;52.114;5.718;2023-05-21T11:55:36;24.90;99.90
25504;DHT22;13410;52.114;5.718;2023-05-21T11:58:02;25.00;99.90
25504;DHT22;13410;52.114;5.718;2023-05-21T12:00:28;25.20;99.90
25504;DHT22;13410;52.114;5.718;2023-05-21T12:02:54;25.30;99.90
25504;DHT22;13410;52.114;5.718;2023-05-21T12:05:20;25.60;99.90
25504;DHT22;13410;52.114;5.718;2023-05-21T12:07:46;25.60;99.90
25504;DHT22;13410;52.114;5.718;2023-05-21T12:10:15;25.60;99.90
25504;DHT22;13410;52.114;5.718;2023-05-21T12:12:41;25.50;99.90
25504;DHT22;13410;52.114;5.718;2023-05-21T12:15:06;25.30;99.90
25504;DHT22;13410;52.114;5.718;2023-05-21T12:17:32;25.10;99.90
25504;DHT22;13410;52.114;5.718;2023-05-21T12:19:58;25.20;99.90
25504;DHT22;13410;52.114;5.718;2023-05-21T12:22:25;25.40;99.90
25504;DHT22;13410;52.114;5.718;2023-05-21T12:24:53;25.40;99.90
25504;DHT22;13410;52.114;5.718;2023-05-21T12:27:19;25.50;99.90
25504;DHT22;13410;52.114;5.718;2023-05-21T12:29:47;25.50;99.90
25504;DHT22;13410;52.114;5.718;2023-05-21T12:32:14;25.80;99.90
25504;DHT22;13410;52.114;5.718;2023-05-21T12:34:49;26.00;99.90
25504;DHT22;13410;52.114;5.718;2023-05-21T12:37:25;26.00;99.90
25504;DHT22;13410;52.114;5.718;2023-05-21T12:39:52;26.20;99.90
25504;DHT22;13410;52.114;5.718;2023-05-21T12:42:27;26.10;99.90
25504;DHT22;13410;52.114;5.718;2023-05-21T12:44:54;26.10;99.90
25504;DHT22;13410;52.114;5.718;2023-05-21T12:47:23;26.10;99.90
25504;DHT22;13410;52.114;5.718;2023-05-21T12:50:01;26.10;99.90
25504;DHT22;13410;52.114;5.718;2023-05-21T12:52:27;25.90;99.90
25504;DHT22;13410;52.114;5.718;2023-05-21T12:54:54;26.20;99.90
25504;DHT22;13410;52.114;5.718;2023-05-21T12:57:27;26.10;99.90
25504;DHT22;13410;52.114;5.718;2023-05-21T13:00:00;26.10;99.90
25504;DHT22;13410;52.114;5.718;2023-05-21T13:02:27;26.10;99.90
25504;DHT22;13410;52.114;5.718;2023-05-21T13:04:53;26.00;99.90
25504;DHT22;13410;52.114;5.718;2023-05-21T13:07:18;26.10;99.90
25504;DHT22;13410;52.114;5.718;2023-05-21T13:09:44;26.30;99.90
25504;DHT22;13410;52.114;5.718;2023-05-21T13:12:10;26.40;99.90
25504;DHT22;13410;52.114;5.718;2023-05-21T13:14:35;26.40;99.90
25504;DHT22;13410;52.114;5.718;2023-05-21T13:17:04;26.20;99.90
25504;DHT22;13410;52.114;5.718;2023-05-21T13:19:30;26.10;99.90
25504;DHT22;13410;52.114;5.718;2023-05-21T13:21:55;26.20;99.90
25504;DHT22;13410;52.114;5.718;2023-05-21T13:24:21;26.40;99.90
25504;DHT22;13410;52.114;5.718;2023-05-21T13:26:46;26.60;99.90
25504;DHT22;13410;52.114;5.718;2023-05-21T13:29:13;27.00;99.90
25504;DHT22;13410;52.114;5.718;2023-05-21T13:31:40;26.80;99.90
25504;DHT22;13410;52.114;5.718;2023-05-21T13:34:05;26.50;99.90
25504;DHT22;13410;52.114;5.718;2023-05-21T13:36:32;26.60;99.90
25504;DHT22;13410;52.114;5.718;2023-05-21T13:38:57;26.70;99.90
25504;DHT22;13410;52.114;5.718;2023-05-21T13:41:23;27.00;99.90
25504;DHT22;13410;52.114;5.718;2023-05-21T13:43:48;27.00;99.90
25504;DHT22;13410;52.114;5.718;2023-05-21T13:46:13;27.00;99.90
25504;DHT22;13410;52.114;5.718;2023-05-21T13:48:39;27.10;99.90
25504;DHT22;13410;52.114;5.718;2023-05-21T13:51:07;26.90;99.90
25504;DHT22;13410;52.114;5.718;2023-05-21T13:53:32;26.80;99.90
25504;DHT22;13410;52.114;5.718;2023-05-21T13:55:58;26.70;99.90
25504;DHT22;13410;52.114;5.718;2023-05-21T13:58:23;26.70;99.90
25504;DHT22;13410;52.114;5.718;2023-05-21T14:00:49;26.50;99.90
25504;DHT22;13410;52.114;5.718;2023-05-21T14:03:14;26.60;99.90
25504;DHT22;13410;52.114;5.718;2023-05-21T14:05:40;26.80;99.90
25504;DHT22;13410;52.114;5.718;2023-05-21T14:08:05;26.80;99.90
25504;DHT22;13410;52.114;5.718;2023-05-21T14:10:31;26.80;99.90
25504;DHT22;13410;52.114;5.718;2023-05-21T14:12:56;26.80;99.90
25504;DHT22;13410;52.114;5.718;2023-05-21T14:15:21;26.80;99.90
25504;DHT22;13410;52.114;5.718;2023-05-21T14:17:47;27.00;99.90
25504;DHT22;13410;52.114;5.718;2023-05-21T14:20:14;27.20;99.90
25504;DHT22;13410;52.114;5.718;2023-05-21T14:22:39;27.20;99.90
25504;DHT22;13410;52.114;5.718;2023-05-21T14:25:05;27.30;99.90
25504;DHT22;13410;52.114;5.718;2023-05-21T14:27:31;27.30;99.90
25504;DHT22;13410;52.114;5.718;2023-05-21T14:29:56;27.30;99.90
25504;DHT22;13410;52.114;5.718;2023-05-21T14:32:22;27.10;99.90
25504;DHT22;13410;52.114;5.718;2023-05-21T14:34:47;27.10;99.90
25504;DHT22;13410;52.114;5.718;2023-05-21T14:37:13;27.10;99.90
25504;DHT22;13410;52.114;5.718;2023-05-21T14:39:38;27.10;99.90
25504;DHT22;13410;52.114;5.718;2023-05-21T14:42:04;27.10;99.90
25504;DHT22;13410;52.114;5.718;2023-05-21T14:44:29;27.10;99.90
25504;DHT22;13410;52.114;5.718;2023-05-21T14:46:56;27.40;99.90
25504;DHT22;13410;52.114;5.718;2023-05-21T14:49:21;27.50;99.90
25504;DHT22;13410;52.114;5.718;2023-05-21T14:51:48;27.60;99.90
25504;DHT22;13410;52.114;5.718;2023-05-21T14:54:14;27.50;99.90
25504;DHT22;13410;52.114;5.718;2023-05-21T14:56:39;27.40;99.90
25504;DHT22;13410;52.114;5.718;2023-05-21T14:59:05;27.40;99.90
25504;DHT22;13410;52.114;5.718;2023-05-21T15:01:30;27.10;99.90
25504;DHT22;13410;52.114;5.718;2023-05-21T15:03:56;27.40;99.90
25504;DHT22;13410;52.114;5.718;2023-05-21T15:06:22;27.50;99.90
25504;DHT22;13410;52.114;5.718;2023-05-21T15:08:48;27.30;99.90
25504;DHT22;13410;52.114;5.718;2023-05-21T15:11:13;27.30;99.90
25504;DHT22;13410;52.114;5.718;2023-05-21T15:13:39;27.00;99.90
25504;DHT22;13410;52.114;5.718;2023-05-21T15:16:05;27.20;99.90
25504;DHT22;13410;52.114;5.718;2023-05-21T15:18:30;27.20;99.90
25504;DHT22;13410;52.114;5.718;2023-05-21T15:20:57;27.10;99.90
25504;DHT22;13410;52.114;5.718;2023-05-21T15:23:27;27.10;99.90
25504;DHT22;13410;52.114;5.718;2023-05-21T15:25:54;27.10;99.90
25504;DHT22;13410;52.114;5.718;2023-05-21T15:28:20;26.90;99.90
25504;DHT22;13410;52.114;5.718;2023-05-21T15:30:48;27.00;99.90
25504;DHT22;13410;52.114;5.718;2023-05-21T15:33:14;26.80;99.90
25504;DHT22;13410;52.114;5.718;2023-05-21T15:35:39;26.70;99.90
25504;DHT22;13410;52.114;5.718;2023-05-21T15:38:05;26.70;99.90
25504;DHT22;13410;52.114;5.718;2023-05-21T15:40:30;26.70;99.90
25504;DHT22;13410;52.114;5.718;2023-05-21T15:42:58;26.60;99.90
25504;DHT22;13410;52.114;5.718;2023-05-21T15:45:23;26.70;99.90
25504;DHT22;13410;52.114;5.718;2023-05-21T15:47:49;26.50;99.90
25504;DHT22;13410;52.114;5.718;2023-05-21T15:50:14;26.70;99.90